Time;durP1;ratioP1;P1;durP2;ratioP2;P2;SDS_P1;SDS_P2;PMS_P1;PMS_P2;Temp;Humidity;BMP_temperature;BMP_pressure;BME280_temperature;BME280_humidity;BME280_pressure;Samples;Min_cycle;Max_cycle;Signal;HPM_P1;HPM_P2
2022/01/26 00:00:43;;;;;;;26.60;13.60;;;0.70;91.50;;;-0.84;90.42;99375.03;5058473;28;20449;-76
2022/01/26 00:06:02;;;;;;;23.80;13.70;;;0.90;91.20;;;-0.76;89.81;99371.84;5075784;28;20441;-76
2022/01/26 00:08:30;;;;;;;21.97;13.17;;;0.80;90.80;;;-0.72;89.63;99381.25;5076139;28;20440;-75
2022/01/26 00:10:57;;;;;;;24.57;13.70;;;0.80;90.90;;;-0.73;89.06;99372.47;5058300;28;20472;-75
2022/01/26 00:13:24;;;;;;;17.63;11.47;;;0.80;90.80;;;-0.84;89.68;99372.38;5058746;28;20438;-75
2022/01/26 00:15:52;;;;;;;22.57;14.87;;;0.80;90.40;;;-0.94;90.50;99360.72;5058752;28;20524;-76
2022/01/26 00:18:21;;;;;;;23.53;12.80;;;0.80;91.20;;;-0.90;90.58;99363.03;5058267;28;20989;-75
2022/01/26 00:20:53;;;;;;;21.47;12.43;;;0.70;91.30;;;-0.74;89.41;99369.91;5057896;28;20514;-75
2022/01/26 00:23:47;;;;;;;24.90;13.40;;;0.80;91.00;;;-0.64;89.26;99370.09;5075751;28;20499;-75
2022/01/26 00:26:24;;;;;;;19.73;11.80;;;0.90;90.50;;;-0.91;90.69;99368.44;5076088;28;20445;-76
2022/01/26 00:29:08;;;;;;;19.17;12.13;;;0.80;91.10;;;-0.69;90.74;99359.81;5075893;28;20432;-75
2022/01/26 00:38:34;;;;;;;27.23;13.73;;;0.80;92.30;;;-0.62;90.75;99361.06;5042084;28;20445;-76
2022/01/26 00:39:56;;;;;;;20.40;12.23;;;1.00;91.60;;;-0.62;90.72;99362.88;5075144;28;20951;-75
2022/01/26 00:42:25;;;;;;;25.23;13.47;;;0.90;91.90;;;-0.79;91.57;99366.75;5057544;28;20441;-76
2022/01/26 00:44:52;;;;;;;23.73;14.13;;;0.90;91.90;;;-0.73;91.58;99347.72;5075657;28;20903;-75
2022/01/26 00:47:19;;;;;;;26.13;14.00;;;0.90;93.60;;;-0.69;91.07;99357.16;5075392;28;20429;-75
2022/01/26 00:49:46;;;;;;;27.80;14.70;;;1.00;92.40;;;-0.79;91.57;99356.13;5057598;28;20883;-74
2022/01/26 00:52:19;;;;;;;24.60;16.00;;;0.80;92.60;;;-0.58;91.82;99359.88;5075325;28;20464;-74
2022/01/26 00:54:46;;;;;;;27.83;15.90;;;0.90;94.10;;;-0.45;90.84;99359.84;5058051;28;20434;-74
2022/01/26 00:57:14;;;;;;;28.90;16.70;;;1.00;93.00;;;-0.48;90.79;99345.94;5075290;28;20671;-74
2022/01/26 00:59:43;;;;;;;26.20;15.47;;;1.10;92.30;;;-0.58;90.57;99336.00;5074296;28;20438;-74
2022/01/26 01:02:10;;;;;;;26.93;15.00;;;1.10;92.30;;;-0.57;91.64;99353.59;5075298;28;20525;-74
2022/01/26 01:04:37;;;;;;;28.77;16.60;;;1.00;92.50;;;-0.61;91.60;99354.81;5057442;28;20429;-74
2022/01/26 01:07:06;;;;;;;25.03;15.57;;;1.00;93.00;;;-0.70;91.27;99320.13;5065436;28;20639;-75
2022/01/26 01:09:34;;;;;;;26.47;15.87;;;1.00;92.80;;;-0.48;91.07;99359.22;5081095;28;20441;-75
2022/01/26 01:12:03;;;;;;;27.73;15.83;;;1.10;92.30;;;-0.70;91.87;99354.63;5078616;28;20491;-74
2022/01/26 01:14:36;;;;;;;28.47;14.40;;;1.00;91.90;;;-0.60;92.08;99345.88;5057575;28;20436;-74
2022/01/26 01:17:07;;;;;;;25.70;15.70;;;1.00;93.40;;;-0.40;90.87;99353.34;5075122;28;20461;-74
2022/01/26 01:19:38;;;;;;;25.60;16.63;;;1.10;92.50;;;-0.72;93.01;99352.94;5074757;28;20650;-74
2022/01/26 01:22:31;;;;;;;27.47;16.67;;;0.90;93.40;;;-0.69;92.87;99357.16;5073837;28;20433;-74
2022/01/26 01:28:00;;;;;;;34.63;16.50;;;0.70;94.20;;;-0.95;93.71;99353.72;5067169;28;20464;-74
2022/01/26 01:30:33;;;;;;;29.30;18.07;;;0.70;95.50;;;-0.69;93.01;99351.84;5056230;28;20546;-74
2022/01/26 01:33:07;;;;;;;27.37;17.43;;;0.90;95.10;;;-0.62;92.72;99358.41;5057087;28;20524;-74
2022/01/26 01:35:38;;;;;;;34.03;18.03;;;0.90;94.70;;;-0.69;92.76;99337.72;5078256;28;20472;-74
2022/01/26 01:38:11;;;;;;;28.23;16.57;;;1.00;94.10;;;-0.78;92.94;99363.13;5088324;28;20469;-74
2022/01/26 01:40:40;;;;;;;32.93;18.43;;;0.90;93.50;;;-0.66;92.77;99362.25;5077132;28;20439;-75
2022/01/26 01:43:08;;;;;;;31.20;17.43;;;0.90;94.50;;;-0.46;91.67;99352.00;5075136;28;20524;-76
2022/01/26 01:45:38;;;;;;;28.53;18.73;;;1.00;93.80;;;-0.74;92.84;99354.84;5056597;28;20932;-76
2022/01/26 01:48:07;;;;;;;32.77;19.00;;;0.90;93.40;;;-0.70;93.98;99360.75;5056523;28;20445;-77
2022/01/26 01:50:40;;;;;;;30.53;18.43;;;0.90;95.50;;;-0.90;94.47;99351.59;5056643;28;20460;-77
2022/01/26 01:53:07;;;;;;;27.80;17.70;;;0.80;95.80;;;-0.82;94.62;99356.34;5056566;28;20445;-78
2022/01/26 01:55:38;;;;;;;30.97;19.20;;;0.80;97.40;;;-0.92;95.56;99354.34;5056910;28;20445;-77
2022/01/26 01:58:05;;;;;;;42.00;19.40;;;0.70;99.30;;;-1.06;95.04;99333.25;5072971;28;20472;-77
2022/01/26 02:00:33;;;;;;;30.20;19.10;;;0.70;97.50;;;-0.90;95.49;99360.38;5074248;28;20976;-78
2022/01/26 02:03:00;;;;;;;31.30;19.87;;;0.70;99.90;;;-0.79;94.98;99356.13;5074404;28;20532;-75
2022/01/26 02:05:28;;;;;;;33.50;19.60;;;0.80;98.60;;;-0.94;95.36;99358.06;5074048;28;20477;-75
2022/01/26 02:07:55;;;;;;;30.83;17.37;;;0.70;99.30;;;-0.96;95.31;99360.84;5074090;28;20441;-76
2022/01/26 02:10:24;;;;;;;29.80;18.00;;;0.70;98.70;;;-1.06;96.27;99354.47;5074281;28;20460;-76
2022/01/26 02:12:56;;;;;;;33.70;20.40;;;0.60;99.80;;;-1.46;96.59;99291.81;5055990;28;20452;-75
2022/01/26 02:15:28;;;;;;;36.53;21.10;;;0.60;99.90;;;-1.03;96.74;99343.63;5073666;28;20448;-75
2022/01/26 02:20:57;;;;;;;37.53;20.17;;;0.70;99.90;;;-1.11;96.76;99351.31;5071294;28;20460;-74
2022/01/26 02:51:46;;;;;;;36.00;21.47;;;0.50;99.90;;;-1.19;99.16;99339.41;5042797;28;20507;-75
2022/01/26 02:54:39;;;;;;;36.57;20.53;;;0.40;99.90;;;-1.10;97.63;99332.59;5072992;28;20954;-74
2022/01/26 02:57:27;;;;;;;33.37;19.87;;;0.60;99.90;;;-1.05;97.66;99341.13;5071885;28;20456;-74
2022/01/26 03:00:14;;;;;;;38.70;20.30;;;0.60;99.90;;;-1.22;98.17;99329.03;5055428;28;20476;-75
2022/01/26 03:02:46;;;;;;;41.53;20.33;;;0.50;99.90;;;-1.31;99.37;99340.25;5055763;28;20441;-75
2022/01/26 03:05:15;;;;;;;39.83;21.70;;;0.30;99.90;;;-1.25;99.72;99334.56;5055132;28;20441;-75
2022/01/26 03:07:46;;;;;;;41.37;21.00;;;0.40;99.90;;;-1.27;99.76;99331.16;5054949;28;20433;-75
2022/01/26 03:10:21;;;;;;;39.70;20.27;;;0.40;99.90;;;-1.34;99.47;99329.88;5073396;28;20417;-76
2022/01/26 03:12:54;;;;;;;51.70;23.00;;;0.40;99.90;;;-1.11;98.76;99330.09;5055475;28;20860;-75
2022/01/26 03:15:25;;;;;;;46.70;22.67;;;0.50;99.90;;;-1.14;98.48;99333.78;5055140;28;20445;-75
2022/01/26 03:18:31;;;;;;;37.93;21.30;;;0.50;99.90;;;-1.35;98.93;99333.50;5073968;28;20963;-75
2022/01/26 03:21:01;;;;;;;41.97;19.30;;;0.40;99.90;;;-1.31;99.39;99332.31;5063617;28;20967;-74
2022/01/26 03:29:13;;;;;;;40.57;20.13;;;0.30;99.90;;;-1.50;100.00;99332.75;5076931;28;20445;-74
2022/01/26 03:32:39;;;;;;;43.10;22.10;;;0.20;99.90;;;-1.46;100.00;99343.03;5077013;28;20436;-76
2022/01/26 03:34:58;;;;;;;44.43;20.83;;;0.20;99.90;;;-1.46;100.00;99329.78;5058383;28;20437;-77
2022/01/26 03:37:30;;;;;;;37.77;22.07;;;0.30;99.90;;;-1.28;99.96;99324.16;5059000;28;20469;-77
2022/01/26 03:39:57;;;;;;;36.17;20.20;;;0.30;99.90;;;-1.40;100.00;99327.66;5076802;28;20591;-75
2022/01/26 03:42:26;;;;;;;37.00;19.50;;;0.30;99.90;;;-1.37;100.00;99332.75;5075064;28;20502;-74
2022/01/26 03:44:53;;;;;;;36.00;18.80;;;0.30;99.90;;;-1.57;99.86;99329.69;5076567;28;21008;-75
2022/01/26 03:47:20;;;;;;;36.40;18.43;;;0.20;99.90;;;-1.71;100.00;99320.00;5076466;28;20524;-75
2022/01/26 03:49:47;;;;;;;43.97;18.97;;;0.10;99.90;;;-1.71;100.00;99333.25;5058812;28;20856;-76
2022/01/26 03:52:13;;;;;;;39.97;21.30;;;0.00;99.90;;;-1.64;100.00;99328.41;5075093;28;20460;-75
2022/01/26 03:54:41;;;;;;;35.23;19.63;;;0.00;99.90;;;-1.48;100.00;99328.19;5075441;28;21031;-76
2022/01/26 03:57:08;;;;;;;44.90;19.77;;;0.10;99.90;;;-1.52;100.00;99324.91;5075514;28;20507;-75
2022/01/26 03:59:36;;;;;;;31.07;16.27;;;0.20;99.90;;;-1.71;99.96;99334.13;5076750;28;20503;-75
2022/01/26 04:02:04;;;;;;;29.50;16.07;;;0.00;99.90;;;-1.81;100.00;99338.34;5076272;28;20429;-76
2022/01/26 04:04:36;;;;;;;31.83;15.63;;;0.00;99.90;;;-1.88;100.00;99321.19;5074909;28;20476;-76
2022/01/26 04:07:04;;;;;;;34.70;16.00;;;-0.10;99.90;;;-1.90;100.00;99325.69;5058431;28;20527;-75
2022/01/26 04:09:31;;;;;;;30.93;16.63;;;-0.20;99.90;;;-1.79;100.00;99328.47;5075366;28;20496;-73
2022/01/26 04:11:59;;;;;;;29.57;16.80;;;-0.10;99.90;;;-1.81;100.00;99322.44;5058282;28;20464;-74
2022/01/26 04:14:30;;;;;;;30.40;16.97;;;-0.10;99.90;;;-2.00;100.00;99310.44;5057774;28;20441;-74
2022/01/26 04:16:58;;;;;;;30.63;17.00;;;-0.10;99.90;;;-1.92;100.00;99327.63;5076254;28;20765;-73
2022/01/26 04:19:28;;;;;;;32.57;17.87;;;-0.20;99.90;;;-1.95;100.00;99338.44;5058112;28;20521;-75
2022/01/26 04:22:05;;;;;;;40.27;18.37;;;-0.20;99.90;;;-1.97;100.00;99327.09;5077183;28;20441;-75
2022/01/26 04:24:37;;;;;;;36.13;19.47;;;-0.20;99.90;;;-1.90;100.00;99337.16;5076573;28;20441;-76
2022/01/26 04:27:12;;;;;;;34.47;18.17;;;-0.20;99.90;;;-1.77;100.00;99342.47;5088726;28;20430;-75
2022/01/26 04:29:39;;;;;;;32.27;17.30;;;-0.10;99.90;;;-1.76;100.00;99336.22;5064304;28;20437;-77
2022/01/26 04:32:09;;;;;;;34.17;18.80;;;-0.10;99.90;;;-1.88;100.00;99342.38;5077343;28;20490;-76
2022/01/26 04:34:37;;;;;;;34.07;20.00;;;-0.20;99.90;;;-1.97;100.00;99327.94;5073047;28;20954;-76
2022/01/26 04:37:12;;;;;;;37.00;19.93;;;-0.20;99.90;;;-1.93;100.00;99321.47;5057369;28;20520;-76
2022/01/26 04:39:45;;;;;;;35.33;19.57;;;-0.20;99.90;;;-1.92;100.00;99327.63;5058046;28;20433;-76
2022/01/26 04:42:16;;;;;;;34.53;18.57;;;-0.20;99.90;;;-1.70;100.00;99337.59;5076230;28;20529;-77
2022/01/26 04:44:48;;;;;;;34.57;19.17;;;-0.10;99.90;;;-1.75;100.00;99334.44;5075800;28;20441;-76
2022/01/26 04:47:17;;;;;;;34.97;18.33;;;-0.10;99.90;;;-1.81;100.00;99337.50;5075978;28;20442;-76
2022/01/26 04:49:43;;;;;;;33.20;16.20;;;-0.10;99.90;;;-1.85;100.00;99331.56;5058305;28;20513;-77
2022/01/26 04:52:10;;;;;;;33.80;19.53;;;-0.20;99.90;;;-1.92;100.00;99330.25;5075125;28;20449;-73
2022/01/26 04:54:37;;;;;;;36.10;19.43;;;-0.20;99.90;;;-1.86;100.00;99319.28;5073837;28;20441;-74
2022/01/26 04:57:05;;;;;;;34.57;17.80;;;-0.10;99.90;;;-2.15;100.00;99287.63;5075431;28;20536;-74
2022/01/26 04:59:31;;;;;;;38.33;19.20;;;-0.20;99.90;;;-1.87;99.71;99320.22;5075156;28;20452;-74
2022/01/26 05:01:58;;;;;;;35.07;18.17;;;-0.20;99.90;;;-1.87;100.00;99320.22;5075395;28;20768;-74
2022/01/26 05:04:26;;;;;;;35.03;17.30;;;-0.20;99.90;;;-1.82;99.88;99304.84;5073617;28;20528;-74
2022/01/26 05:06:53;;;;;;;30.20;17.50;;;-0.10;99.90;;;-1.81;98.78;99313.66;5075368;28;20491;-74
2022/01/26 05:09:21;;;;;;;29.30;15.53;;;-0.10;99.90;;;-1.88;98.25;99306.13;5076028;28;20528;-73
2022/01/26 05:11:53;;;;;;;36.43;17.83;;;-0.10;99.90;;;-1.78;98.05;99295.72;5058047;28;20425;-74
2022/01/26 05:14:20;;;;;;;27.30;16.70;;;-0.10;99.90;;;-1.83;97.85;99307.59;5077660;28;20525;-74
2022/01/26 05:16:47;;;;;;;30.10;17.93;;;-0.10;99.90;;;-1.77;97.96;99313.31;5075443;28;20445;-74
2022/01/26 05:19:14;;;;;;;28.53;17.27;;;-0.10;99.90;;;-1.57;97.35;99311.13;5075218;28;20461;-74
2022/01/26 05:21:42;;;;;;;27.63;16.17;;;0.10;99.90;;;-1.70;96.72;99308.47;5073622;28;20437;-74
2022/01/26 05:24:10;;;;;;;26.80;18.03;;;0.10;99.40;;;-1.58;96.95;99315.56;5074965;28;20437;-75
2022/01/26 05:26:38;;;;;;;30.07;16.60;;;0.10;99.90;;;-1.71;96.68;99301.47;5075150;28;20540;-77
2022/01/26 05:29:07;;;;;;;28.60;16.80;;;0.00;98.70;;;-1.65;96.28;99294.91;5056541;28;20440;-75
2022/01/26 05:31:34;;;;;;;31.50;16.43;;;0.10;99.90;;;-1.86;96.72;99290.13;5056935;28;20440;-73
2022/01/26 05:34:01;;;;;;;27.63;16.23;;;-0.10;99.40;;;-1.76;96.62;99293.81;5056623;28;20524;-74
2022/01/26 05:36:28;;;;;;;28.10;15.83;;;0.00;99.90;;;-1.72;96.49;99305.94;5074379;28;20436;-75
2022/01/26 05:38:56;;;;;;;29.57;16.70;;;0.00;99.90;;;-1.83;97.17;99284.59;5074497;28;21026;-73
2022/01/26 05:41:23;;;;;;;29.73;16.10;;;0.00;99.90;;;-1.60;96.69;99298.06;5058155;28;20942;-74
2022/01/26 05:43:50;;;;;;;32.23;17.40;;;0.00;99.90;;;-1.55;95.66;99284.50;5059135;28;20528;-74
2022/01/26 05:46:24;;;;;;;38.50;20.87;;;0.10;99.30;;;-1.31;97.05;99300.50;5076045;28;20559;-74
2022/01/26 05:48:52;;;;;;;34.93;17.80;;;0.20;99.90;;;-1.49;95.43;99287.56;5076066;28;20620;-75
2022/01/26 05:51:19;;;;;;;29.47;17.97;;;0.20;97.90;;;-1.59;94.54;99282.06;5074355;28;20485;-74
2022/01/26 05:53:46;;;;;;;30.40;15.93;;;0.20;96.70;;;-1.66;94.28;99288.75;5073064;28;20433;-67
2022/01/26 05:56:14;;;;;;;29.27;15.40;;;0.10;95.60;;;-1.50;93.72;99293.84;5073593;28;20441;-68
2022/01/26 05:58:41;;;;;;;33.67;16.80;;;0.20;94.80;;;-1.75;92.25;99247.81;5073572;28;20800;-69
2022/01/26 06:01:08;;;;;;;22.97;15.27;;;0.20;92.80;;;-1.33;91.74;99300.63;5074218;28;20524;-67
2022/01/26 06:03:35;;;;;;;28.87;15.90;;;0.20;92.00;;;-1.26;91.21;99298.38;5073825;28;20472;-67
2022/01/26 06:06:02;;;;;;;24.53;14.33;;;0.30;91.30;;;-1.30;90.13;99305.69;5073739;28;20456;-66
2022/01/26 06:08:29;;;;;;;25.77;15.17;;;0.30;90.10;;;-1.15;91.81;99309.06;5073459;28;20498;-65
2022/01/26 06:10:56;;;;;;;25.67;14.80;;;0.40;93.50;;;-1.25;90.75;99301.88;5073775;28;20441;-66
2022/01/26 06:13:24;;;;;;;28.83;16.10;;;0.40;90.80;;;-1.05;90.83;99292.50;5073708;28;20433;-67
2022/01/26 06:15:51;;;;;;;22.53;13.70;;;0.50;91.80;;;-1.03;89.60;99291.44;5073625;28;20434;-67
2022/01/26 06:18:18;;;;;;;20.03;13.67;;;0.50;90.30;;;-1.11;89.31;99269.91;5073581;28;20461;-71
2022/01/26 06:20:45;;;;;;;22.20;14.00;;;0.60;90.10;;;-1.13;88.36;99290.38;5073640;28;20459;-67
2022/01/26 06:23:12;;;;;;;23.10;13.53;;;0.50;88.50;;;-1.18;88.73;99295.19;5073698;28;20437;-68
2022/01/26 06:25:39;;;;;;;24.73;15.00;;;0.50;88.40;;;-0.84;87.86;99279.50;5073488;28;20437;-69
2022/01/26 06:28:11;;;;;;;22.00;13.80;;;0.70;88.10;;;-0.79;88.32;99284.47;5073668;28;20849;-67
2022/01/26 06:30:39;;;;;;;22.63;13.80;;;0.80;88.80;;;-0.69;88.28;99277.50;5073283;28;20468;-68
2022/01/26 06:33:08;;;;;;;25.57;16.00;;;0.90;88.80;;;-0.59;88.19;99275.88;5072109;28;20951;-68
2022/01/26 06:35:36;;;;;;;24.57;15.43;;;1.00;89.10;;;-0.39;86.87;99288.66;5073212;28;20425;-68
2022/01/26 06:38:03;;;;;;;26.37;15.50;;;1.20;86.80;;;-0.47;86.67;99279.44;5072077;28;20457;-68
2022/01/26 06:40:31;;;;;;;24.77;14.50;;;1.10;85.70;;;-0.60;85.45;99300.75;5055643;28;20464;-67
2022/01/26 06:42:59;;;;;;;23.53;15.70;;;1.10;83.00;;;-0.41;86.38;99306.50;5073676;28;20463;-67
2022/01/26 06:45:29;;;;;;;23.17;14.13;;;1.10;84.60;;;-0.48;85.47;99287.53;5055485;28;20818;-68
2022/01/26 06:48:14;;;;;;;22.07;13.80;;;1.10;83.30;;;-0.78;85.59;99305.56;5055505;28;20441;-69
2022/01/26 06:50:41;;;;;;;17.73;10.97;;;1.00;82.50;;;-0.98;84.57;99304.38;5073339;28;20909;-69
2022/01/26 06:53:08;;;;;;;17.30;13.00;;;0.80;81.40;;;-1.02;85.44;99318.81;5073122;28;20452;-69
2022/01/26 06:55:37;;;;;;;19.53;13.30;;;0.60;82.20;;;-0.95;85.93;99304.16;5054632;28;20444;-69
2022/01/26 06:58:04;;;;;;;15.70;10.40;;;0.70;84.10;;;-0.77;85.21;99307.28;5067947;28;20516;-68
2022/01/26 07:00:32;;;;;;;15.80;10.20;;;0.80;83.70;;;-0.81;84.75;99304.97;5064556;28;20456;-69
2022/01/26 07:03:00;;;;;;;19.57;12.00;;;0.80;83.20;;;-0.86;85.68;99310.59;5076032;28;20527;-68
2022/01/26 07:05:27;;;;;;;17.57;11.07;;;0.70;83.30;;;-0.71;84.86;99305.97;5062453;28;20982;-70
2022/01/26 07:07:54;;;;;;;17.98;10.32;;;0.80;83.10;;;-0.82;84.69;99300.63;5069849;28;20453;-68
2022/01/26 07:10:21;;;;;;;16.93;11.17;;;0.80;82.50;;;-0.73;84.37;99314.06;5077314;28;20197;-70
2022/01/26 07:12:48;;;;;;;16.40;11.40;;;0.90;82.30;;;-0.94;85.20;99315.59;5076816;28;20916;-69
2022/01/26 07:23:35;;;;;;;15.27;11.33;;;0.70;84.40;;;-1.03;85.47;99315.31;5077023;28;20446;-67
2022/01/26 07:26:02;;;;;;;15.90;11.73;;;0.60;82.70;;;-0.92;84.88;99303.94;5076319;28;20613;-68
2022/01/26 07:28:34;;;;;;;19.00;11.43;;;0.60;82.30;;;-0.89;83.90;99305.53;5076440;28;20516;-68
2022/01/26 07:31:01;;;;;;;15.90;11.63;;;0.70;81.60;;;-1.02;84.76;99309.06;5058537;28;20544;-68
2022/01/26 07:33:30;;;;;;;19.60;12.50;;;0.60;81.90;;;-0.97;84.87;99306.06;5075295;28;20449;-69
2022/01/26 07:35:57;;;;;;;21.40;13.53;;;0.60;82.40;;;-0.91;84.45;99318.88;5076621;28;20437;-68
2022/01/26 07:38:25;;;;;;;20.50;13.63;;;0.70;82.20;;;-0.96;85.36;99315.72;5076453;28;20463;-68
2022/01/26 07:40:52;;;;;;;20.67;13.43;;;0.70;82.70;;;-1.05;85.59;99324.34;5075230;28;20485;-70
2022/01/26 07:43:19;;;;;;;22.63;14.57;;;0.60;83.20;;;-1.00;85.77;99332.81;5058584;28;20826;-69
2022/01/26 07:45:46;;;;;;;23.97;15.70;;;0.60;83.70;;;-0.96;85.71;99331.66;5076733;28;20530;-69
2022/01/26 07:48:13;;;;;;;19.70;13.60;;;0.70;83.90;;;-1.08;85.00;99328.03;5075490;28;20440;-70
2022/01/26 07:50:41;;;;;;;24.83;15.03;;;0.60;82.00;;;-1.02;85.25;99340.03;5076181;28;20932;-70
2022/01/26 07:53:13;;;;;;;23.07;15.20;;;0.60;82.80;;;-0.97;86.00;99342.34;5076374;28;20444;-68
2022/01/26 07:55:40;;;;;;;21.07;14.83;;;0.60;84.30;;;-1.03;86.21;99336.53;5075118;28;20444;-69
2022/01/26 07:58:09;;;;;;;22.53;16.63;;;0.60;84.10;;;-0.99;86.29;99323.88;5076222;28;20445;-69
2022/01/26 08:00:36;;;;;;;21.63;13.90;;;0.60;84.80;;;-1.03;86.78;99320.63;5075653;28;20588;-71
2022/01/26 08:03:03;;;;;;;26.43;14.90;;;0.60;85.60;;;-0.74;86.31;99335.41;5076385;28;20437;-69
2022/01/26 08:05:30;;;;;;;22.60;12.70;;;0.80;86.20;;;-0.89;86.26;99345.31;5079109;28;20930;-77
2022/01/26 08:07:58;;;;;;;22.93;15.13;;;0.80;84.50;;;-1.17;87.46;99336.66;5075229;28;20445;-78
2022/01/26 08:10:25;;;;;;;24.43;15.07;;;0.60;85.90;;;-1.22;88.55;99329.03;5076251;28;20448;-75
2022/01/26 08:12:52;;;;;;;25.33;15.40;;;0.50;87.40;;;-1.20;88.54;99343.03;5076367;28;20437;-77
2022/01/26 08:15:19;;;;;;;25.17;14.83;;;0.50;88.30;;;-1.06;87.92;99335.91;5076263;28;20473;-77
2022/01/26 08:17:46;;;;;;;21.97;13.53;;;0.50;88.40;;;-1.12;88.45;99334.53;5074831;28;20520;-76
2022/01/26 08:20:13;;;;;;;21.17;14.20;;;0.50;87.80;;;-1.02;87.23;99329.41;5058182;28;20461;-75
2022/01/26 08:22:40;;;;;;;23.50;13.80;;;0.60;86.90;;;-1.06;86.82;99322.63;5075153;28;20552;-80
2022/01/26 08:25:10;;;;;;;21.30;13.77;;;0.60;85.90;;;-0.90;86.06;99328.53;5074831;28;20472;-77
2022/01/26 08:27:41;;;;;;;19.50;12.73;;;0.70;84.90;;;-1.07;85.62;99323.59;5058694;28;20444;-77
2022/01/26 08:30:14;;;;;;;16.83;11.60;;;0.70;83.40;;;-1.16;85.90;99338.38;5075711;28;20436;-77
2022/01/26 08:32:41;;;;;;;20.90;13.07;;;0.60;83.70;;;-1.09;86.24;99344.09;5075478;28;20452;-78
2022/01/26 08:35:09;;;;;;;21.10;13.83;;;0.60;84.20;;;-1.16;86.05;99349.81;5076073;28;20567;-76
2022/01/26 08:37:36;;;;;;;20.73;12.97;;;0.50;83.60;;;-1.06;85.27;99339.41;5076028;28;20888;-78
2022/01/26 08:40:05;;;;;;;21.67;13.90;;;0.60;83.20;;;-1.00;85.20;99346.06;5076326;28;20464;-77
2022/01/26 08:42:34;;;;;;;20.43;13.30;;;0.60;83.00;;;-1.04;84.75;99342.81;5075756;28;20442;-76
2022/01/26 08:45:01;;;;;;;21.70;15.82;;;0.60;82.40;;;-1.07;84.97;99332.38;5074305;28;20914;-77
2022/01/26 08:47:28;;;;;;;18.20;12.03;;;0.60;82.30;;;-1.19;84.64;99342.06;5058058;28;20337;-77
2022/01/26 08:49:55;;;;;;;19.80;12.73;;;0.60;81.50;;;-1.12;85.52;99347.78;5075084;28;20770;-78
2022/01/26 08:52:22;;;;;;;20.83;14.53;;;0.50;82.90;;;-1.00;85.31;99354.03;5075588;28;20495;-76
2022/01/26 08:54:49;;;;;;;16.27;11.40;;;0.60;83.10;;;-0.92;84.01;99341.09;5074491;28;20518;-75
2022/01/26 08:57:17;;;;;;;16.67;10.70;;;0.70;81.90;;;-1.04;84.01;99352.56;5075863;28;20487;-75
2022/01/26 08:59:45;;;;;;;18.35;12.88;;;0.60;81.20;;;-1.12;84.67;99337.19;5074493;28;20431;-76
2022/01/26 09:02:12;;;;;;;23.57;12.67;;;0.60;82.20;;;-1.22;85.57;99334.34;5075733;28;20274;-75
2022/01/26 09:04:39;;;;;;;17.40;12.07;;;0.50;83.20;;;-1.03;85.44;99336.53;5057839;28;20441;-77
2022/01/26 09:07:09;;;;;;;21.20;13.20;;;0.50;83.90;;;-1.03;85.30;99317.09;5058589;28;20514;-76
2022/01/26 09:09:43;;;;;;;22.97;14.50;;;0.70;83.40;;;-0.91;84.88;99339.25;5076480;28;20437;-76
2022/01/26 09:12:11;;;;;;;19.00;13.83;;;0.70;82.60;;;-0.80;85.22;99343.81;5074558;28;20437;-77
2022/01/26 09:14:39;;;;;;;18.63;11.70;;;0.70;83.70;;;-0.84;85.08;99326.41;5057434;28;20457;-76
2022/01/26 09:17:08;;;;;;;16.87;12.50;;;0.80;82.80;;;-0.77;84.88;99335.63;5074156;28;20469;-77
2022/01/26 09:19:36;;;;;;;17.40;11.23;;;0.80;82.40;;;-0.87;84.76;99324.84;5074956;28;20465;-76
2022/01/26 09:22:07;;;;;;;18.83;10.87;;;0.80;82.10;;;-0.84;84.85;99326.41;5073261;28;20476;-76
2022/01/26 09:24:37;;;;;;;17.60;11.20;;;0.80;82.00;;;-0.81;84.85;99337.66;5057662;28;20896;-77
2022/01/26 09:27:06;;;;;;;18.00;12.03;;;0.80;82.80;;;-0.99;85.59;99329.19;5075485;28;20430;-75
2022/01/26 09:29:34;;;;;;;18.63;12.53;;;0.70;83.50;;;-0.80;85.39;99341.16;5058133;28;20477;-75
2022/01/26 09:32:03;;;;;;;21.37;12.20;;;0.80;83.90;;;-0.75;85.71;99342.53;5075054;28;20520;-76
2022/01/26 09:34:35;;;;;;;19.77;12.00;;;0.90;83.90;;;-0.78;86.43;99333.94;5075061;28;20533;-76
2022/01/26 09:37:03;;;;;;;18.50;13.47;;;0.80;84.40;;;-0.65;84.79;99310.84;5074824;28;20448;-76
2022/01/26 09:39:30;;;;;;;17.70;12.27;;;1.00;83.90;;;-0.53;84.73;99325.03;5074654;28;20795;-75
2022/01/26 09:41:58;;;;;;;15.83;9.23;;;1.10;82.90;;;-0.65;84.63;99324.13;5056648;28;20441;-76
2022/01/26 09:44:25;;;;;;;13.83;8.90;;;1.00;82.30;;;-0.62;84.20;99285.88;5074501;28;20924;-77
2022/01/26 09:46:52;;;;;;;14.67;8.40;;;1.10;82.20;;;-0.54;84.11;99325.13;5074435;28;20441;-76
2022/01/26 09:49:19;;;;;;;16.67;9.67;;;1.10;81.60;;;-0.49;84.40;99330.97;5073142;28;20469;-75
2022/01/26 09:51:50;;;;;;;16.70;9.97;;;1.10;81.80;;;-0.60;84.37;99324.63;5074803;28;20471;-76
2022/01/26 09:54:20;;;;;;;16.07;9.60;;;1.10;82.30;;;-0.53;84.56;99324.19;5057249;28;20909;-79
2022/01/26 09:56:49;;;;;;;14.00;9.33;;;1.10;82.20;;;-0.43;84.41;99319.91;5074797;28;20437;-75
2022/01/26 09:59:18;;;;;;;14.80;9.20;;;1.10;82.90;;;-0.64;85.04;99333.78;5057227;28;20471;-71
2022/01/26 10:01:48;;;;;;;17.47;9.90;;;1.10;82.30;;;-0.66;85.29;99314.47;5077928;28;20441;-78
2022/01/26 10:04:24;;;;;;;17.77;11.17;;;1.00;83.80;;;-0.51;85.67;99322.28;5074328;28;20433;-79
2022/01/26 10:07:18;;;;;;;16.60;10.50;;;1.10;83.60;;;-0.51;85.89;99322.28;5057511;28;20441;-78
2022/01/26 10:10:01;;;;;;;15.40;9.00;;;1.10;83.70;;;-0.59;85.40;99323.69;5075964;28;20485;-80
2022/01/26 10:15:31;;;;;;;16.70;8.83;;;1.10;84.30;;;-0.59;86.66;99342.25;5073971;28;20441;-79
2022/01/26 10:18:09;;;;;;;14.10;9.40;;;1.00;84.80;;;-0.73;86.94;99334.44;5078597;28;20844;-80
2022/01/26 10:20:46;;;;;;;13.47;8.67;;;1.00;85.30;;;-0.62;86.45;99342.50;5074453;28;20538;-79
2022/01/26 10:23:17;;;;;;;14.77;7.70;;;1.10;84.60;;;-0.80;86.32;99318.13;5075170;28;20528;-81
2022/01/26 10:25:48;;;;;;;13.90;8.60;;;1.10;84.00;;;-0.43;85.59;99333.16;5085933;28;20425;-82
2022/01/26 10:28:17;;;;;;;9.40;7.13;;;1.10;83.50;;;-0.46;84.44;99309.50;5091383;28;20543;-81
2022/01/26 10:30:47;;;;;;;11.37;7.47;;;1.30;82.50;;;-0.32;83.73;99330.59;5087233;28;20445;-81
2022/01/26 10:33:16;;;;;;;12.77;8.77;;;1.30;81.70;;;-0.33;83.66;99342.16;5073746;28;20429;-80
2022/01/26 10:35:44;;;;;;;10.20;7.37;;;1.40;81.10;;;-0.48;84.09;99338.81;5073245;28;20443;-82
2022/01/26 10:38:11;;;;;;;10.77;7.67;;;1.20;82.20;;;-0.43;84.50;99347.31;5074264;28;20900;-80
2022/01/26 10:40:40;;;;;;;17.00;8.57;;;1.20;82.50;;;-0.52;84.86;99326.72;5072676;28;20993;-80
2022/01/26 10:43:11;;;;;;;11.57;7.67;;;1.20;83.00;;;-0.50;85.37;99331.94;5073097;28;20429;-79
2022/01/26 10:45:56;;;;;;;11.33;7.87;;;1.10;83.30;;;-0.44;84.74;99336.78;5053596;28;20449;-79
2022/01/26 10:48:29;;;;;;;12.97;8.47;;;1.20;82.90;;;-0.26;84.69;99336.38;5074683;28;20433;-82
2022/01/26 10:51:31;;;;;;;15.10;8.90;;;1.30;82.80;;;-0.48;84.81;99327.38;5074562;28;20437;-81
2022/01/26 10:54:10;;;;;;;15.23;8.83;;;1.30;82.60;;;-0.66;86.11;99349.00;5067018;28;20448;-81
2022/01/26 10:56:40;;;;;;;14.43;7.80;;;1.10;84.00;;;-0.51;86.90;99343.53;5096726;28;20425;-82
2022/01/26 10:59:07;;;;;;;11.93;9.00;;;1.10;86.10;;;-0.66;86.72;99338.38;5095327;28;20516;-79
2022/01/26 11:01:37;;;;;;;15.43;8.57;;;1.00;85.50;;;-0.61;87.10;99338.88;5065698;28;20937;-82
2022/01/26 11:04:05;;;;;;;12.03;8.37;;;1.00;86.50;;;-0.69;87.41;99335.91;5092080;28;20460;-77
2022/01/26 11:06:32;;;;;;;17.13;9.53;;;1.00;86.50;;;-0.67;87.29;99344.63;5092365;28;20448;-77
2022/01/26 11:09:07;;;;;;;12.67;9.17;;;1.10;86.50;;;-0.74;88.09;99343.38;5078048;28;20717;-81
2022/01/26 11:11:35;;;;;;;15.00;9.90;;;1.00;87.40;;;-0.84;88.05;99321.09;5074117;28;20904;-80
2022/01/26 11:14:14;;;;;;;13.20;9.00;;;0.90;88.30;;;-0.66;88.10;99330.41;5073930;28;20429;-82
2022/01/26 11:16:53;;;;;;;13.43;9.47;;;1.00;88.50;;;-0.74;88.15;99343.38;5072819;28;20448;-83
2022/01/26 11:19:23;;;;;;;14.33;9.20;;;0.90;87.80;;;-0.70;87.93;99334.22;5055965;28;20540;-72
2022/01/26 11:21:50;;;;;;;17.60;10.53;;;1.00;88.60;;;-0.70;88.08;99334.22;5073088;28;20441;-72
2022/01/26 11:24:20;;;;;;;16.00;11.37;;;1.00;87.90;;;-0.59;87.50;99333.47;5054993;28;20827;-72